Terminal Aerodrome Forecast
Issued by NWS Central Illinois

Home | Current Version | Previous Version | Text Only | Print | Product List | Glossary On
Versions: 1 2 3 4 5 6 7 8 9 10 11 12 13 14 15
000
FTUS43 KILX 310520
TAFSPI
TAF
KSPI 310520Z 3106/0106 26005KT P6SM SKC
     FM311500 28008KT P6SM FEW050
     FM312000 29010G18KT P6SM VCTS FEW030CB BKN040
     FM010000 30005KT P6SM SCT050=

USA.gov is the U.S. government's official web portal to all federal, state and local government web resources and services.